createdAt,value
2022-11-02T00:00:03.719Z,0
2022-11-02T00:01:03.698Z,0
2022-11-02T00:02:04.364Z,0
2022-11-02T00:03:08.939Z,0
2022-11-02T00:04:03.773Z,0
2022-11-02T00:05:03.792Z,0
2022-11-02T00:06:03.707Z,0
2022-11-02T00:07:03.746Z,0
2022-11-02T00:08:03.791Z,0
2022-11-02T00:09:03.773Z,0
2022-11-02T00:10:06.438Z,0
2022-11-02T00:11:03.716Z,0
2022-11-02T00:12:03.720Z,0
2022-11-02T00:13:04.504Z,0
2022-11-02T00:14:06.645Z,0
2022-11-02T00:15:03.740Z,0
2022-11-02T00:16:03.745Z,0
2022-11-02T00:17:03.724Z,0
2022-11-02T00:19:03.798Z,0
2022-11-02T00:20:03.770Z,0
2022-11-02T00:21:03.797Z,0
2022-11-02T00:22:03.748Z,0
2022-11-02T00:23:04.295Z,0
2022-11-02T00:24:03.782Z,0
2022-11-02T00:25:03.739Z,0
2022-11-02T00:26:07.443Z,0
2022-11-02T00:27:03.741Z,0
2022-11-02T00:28:03.722Z,0
2022-11-02T00:29:03.999Z,0
2022-11-02T00:30:06.840Z,0
2022-11-02T00:31:03.754Z,0
2022-11-02T00:32:03.782Z,0
2022-11-02T00:33:04.443Z,0
2022-11-02T00:34:03.764Z,0
2022-11-02T00:35:03.813Z,0
2022-11-02T00:36:03.751Z,0
2022-11-02T00:37:04.865Z,0
2022-11-02T00:38:04.374Z,0
2022-11-02T00:39:03.787Z,0
2022-11-02T00:40:03.769Z,0
2022-11-02T00:41:06.619Z,0
2022-11-02T00:42:03.739Z,0
2022-11-02T00:43:03.751Z,0
2022-11-02T00:44:03.806Z,0
2022-11-02T00:45:03.928Z,0
2022-11-02T00:46:06.880Z,0
2022-11-02T00:47:03.767Z,0
2022-11-02T00:48:04.612Z,0
2022-11-02T00:49:03.875Z,0
2022-11-02T00:50:03.947Z,0
2022-11-02T00:51:03.886Z,0
2022-11-02T00:52:06.866Z,0
2022-11-02T00:53:03.930Z,0
2022-11-02T00:54:03.793Z,0
2022-11-02T00:55:03.813Z,0
2022-11-02T00:56:03.921Z,0
2022-11-02T00:57:07.040Z,0
2022-11-02T00:58:04.571Z,0
2022-11-02T00:59:03.816Z,0
2022-11-02T01:00:03.795Z,0
2022-11-02T01:01:03.994Z,0
2022-11-02T01:02:07.737Z,0
2022-11-02T01:03:06.595Z,0
2022-11-02T01:04:03.842Z,0
2022-11-02T01:05:03.818Z,0
2022-11-02T01:06:03.803Z,0
2022-11-02T01:07:03.884Z,0
2022-11-02T01:08:07.554Z,0
2022-11-02T01:09:03.880Z,0
2022-11-02T01:10:03.800Z,0
2022-11-02T01:11:03.834Z,0
2022-11-02T01:12:03.832Z,0
2022-11-02T01:13:04.963Z,0
2022-11-02T01:14:03.855Z,0
2022-11-02T01:15:03.815Z,0
2022-11-02T01:16:03.807Z,0
2022-11-02T01:17:03.848Z,0
2022-11-02T01:18:04.472Z,0
2022-11-02T01:19:06.872Z,0
2022-11-02T01:20:03.818Z,0
2022-11-02T01:21:03.857Z,0
2022-11-02T01:22:03.833Z,0
2022-11-02T01:23:03.875Z,0
2022-11-02T01:24:06.683Z,0
2022-11-02T01:25:03.882Z,0
2022-11-02T01:26:04.159Z,0
2022-11-02T01:27:08.716Z,0
2022-11-02T01:28:04.551Z,0
2022-11-02T01:29:03.829Z,0
2022-11-02T01:30:06.836Z,0
2022-11-02T01:31:03.838Z,0
2022-11-02T01:32:03.853Z,0
2022-11-02T01:33:03.828Z,0
2022-11-02T01:34:04.017Z,0
2022-11-02T01:35:07.648Z,0
2022-11-02T01:36:04.004Z,0
2022-11-02T01:37:03.896Z,0
2022-11-02T01:38:04.442Z,0
2022-11-02T01:39:04.104Z,0
2022-11-02T01:40:03.933Z,0
2022-11-02T01:41:05.087Z,0
2022-11-02T01:42:03.875Z,0
2022-11-02T01:43:03.850Z,0
2022-11-02T01:44:03.911Z,0
2022-11-02T01:45:03.879Z,0
2022-11-02T01:46:06.965Z,0
2022-11-02T01:47:03.872Z,0
2022-11-02T01:48:04.648Z,0
2022-11-02T01:49:03.873Z,0
2022-11-02T01:50:03.948Z,0
2022-11-02T01:51:03.871Z,0
2022-11-02T01:52:06.903Z,0
2022-11-02T01:53:03.894Z,0
2022-11-02T01:54:03.883Z,0
2022-11-02T01:55:03.938Z,0
2022-11-02T01:56:03.936Z,0
2022-11-02T01:57:06.909Z,0
2022-11-02T01:58:04.699Z,0
2022-11-02T01:59:03.867Z,0
2022-11-02T02:00:03.934Z,0
2022-11-02T02:01:03.887Z,0
2022-11-02T02:02:04.698Z,0
2022-11-02T02:03:07.192Z,0
2022-11-02T02:04:03.883Z,0
2022-11-02T02:05:03.912Z,0
2022-11-02T02:06:03.977Z,0
2022-11-02T02:07:03.893Z,0
2022-11-02T02:08:07.861Z,0
2022-11-02T02:09:03.894Z,0
2022-11-02T02:10:03.936Z,0
2022-11-02T02:11:03.975Z,0
2022-11-02T02:12:03.968Z,0
2022-11-02T02:13:03.923Z,0
2022-11-02T02:14:06.818Z,0
2022-11-02T02:15:03.995Z,0
2022-11-02T02:16:03.919Z,0
2022-11-02T02:17:03.992Z,0
2022-11-02T02:18:04.696Z,0
2022-11-02T02:19:06.808Z,0
2022-11-02T02:20:03.957Z,0
2022-11-02T02:21:03.945Z,0
2022-11-02T02:22:03.928Z,0
2022-11-02T02:23:03.948Z,0
2022-11-02T02:24:03.920Z,0
2022-11-02T02:25:06.786Z,0
2022-11-02T02:26:03.926Z,0
2022-11-02T02:27:04.055Z,0
2022-11-02T02:28:04.925Z,0
2022-11-02T02:29:03.929Z,0
2022-11-02T02:30:06.959Z,0
2022-11-02T02:31:03.936Z,0
2022-11-02T02:32:03.983Z,0
2022-11-02T02:33:03.945Z,0
2022-11-02T02:34:03.935Z,0
2022-11-02T02:35:04.026Z,0
2022-11-02T02:36:03.936Z,0
2022-11-02T02:37:03.942Z,0
2022-11-02T02:38:04.701Z,0
2022-11-02T02:39:03.948Z,0
2022-11-02T02:40:03.969Z,0
2022-11-02T02:41:06.704Z,0
2022-11-02T02:42:03.946Z,0
2022-11-02T02:43:03.995Z,0
2022-11-02T02:44:04.006Z,0
2022-11-02T02:45:04.101Z,0
2022-11-02T02:46:03.981Z,0
2022-11-02T02:47:05.441Z,0
2022-11-02T02:48:04.870Z,0
2022-11-02T02:49:03.956Z,0
2022-11-02T02:50:03.986Z,0
2022-11-02T02:51:03.973Z,0
2022-11-02T02:52:03.990Z,0
2022-11-02T02:53:03.960Z,0
2022-11-02T02:54:03.967Z,0
2022-11-02T02:55:03.990Z,0
2022-11-02T02:56:03.970Z,0
2022-11-02T02:57:06.777Z,0
2022-11-02T02:58:04.752Z,0
2022-11-02T02:59:04.033Z,0
2022-11-02T03:00:04.079Z,0
2022-11-02T03:01:04.014Z,0
2022-11-02T03:02:04.653Z,0
2022-11-02T03:03:03.977Z,0
2022-11-02T03:04:04.030Z,0
2022-11-02T03:05:04.001Z,0
2022-11-02T03:06:03.983Z,0
2022-11-02T03:07:03.988Z,0
2022-11-02T03:08:07.417Z,0
2022-11-02T03:09:03.993Z,0
2022-11-02T03:10:04.016Z,0
2022-11-02T03:11:04.181Z,0
2022-11-02T03:12:04.114Z,0
2022-11-02T03:13:06.851Z,0
2022-11-02T03:14:04.007Z,0
2022-11-02T03:15:04.076Z,0
2022-11-02T03:16:04.077Z,0
2022-11-02T03:17:07.365Z,0
2022-11-02T03:18:04.717Z,0
2022-11-02T03:19:06.820Z,0
2022-11-02T03:20:04.063Z,0
2022-11-02T03:21:04.016Z,0
2022-11-02T03:22:04.020Z,0
2022-11-02T03:23:04.018Z,0
2022-11-02T03:24:06.757Z,0
2022-11-02T03:25:04.092Z,0
2022-11-02T03:26:04.034Z,0
2022-11-02T03:27:04.028Z,0
2022-11-02T03:28:04.859Z,0
2022-11-02T03:29:07.041Z,0
2022-11-02T03:30:04.091Z,0
2022-11-02T03:31:04.086Z,0
2022-11-02T03:32:04.086Z,0
2022-11-02T03:33:04.043Z,0
2022-11-02T03:34:04.022Z,0
2022-11-02T03:35:06.949Z,0
2022-11-02T03:36:04.076Z,0
2022-11-02T03:37:04.432Z,0
2022-11-02T03:38:04.673Z,0
2022-11-02T03:39:04.081Z,0
2022-11-02T03:40:05.719Z,0
2022-11-02T03:41:04.197Z,0
2022-11-02T03:42:04.039Z,0
2022-11-02T03:43:04.045Z,0
2022-11-02T03:44:04.046Z,0
2022-11-02T03:45:04.084Z,0
2022-11-02T03:46:06.933Z,0
2022-11-02T03:47:04.041Z,0
2022-11-02T03:48:04.820Z,0
2022-11-02T03:49:10.899Z,0
2022-11-02T03:50:04.075Z,0
2022-11-02T03:51:06.913Z,0
2022-11-02T03:52:04.075Z,0
2022-11-02T03:53:04.049Z,0
2022-11-02T03:54:04.050Z,0
2022-11-02T03:55:04.101Z,0
2022-11-02T03:56:04.044Z,0
2022-11-02T03:57:07.242Z,0
2022-11-02T03:58:04.834Z,0
2022-11-02T03:59:04.278Z,0
2022-11-02T04:00:04.116Z,0
2022-11-02T04:01:04.181Z,0
2022-11-02T04:02:07.976Z,0
2022-11-02T04:03:04.134Z,0
2022-11-02T04:04:04.123Z,0
2022-11-02T04:05:04.091Z,0
2022-11-02T04:06:04.095Z,0
2022-11-02T04:07:04.067Z,0
2022-11-02T04:08:12.575Z,0
2022-11-02T04:09:04.076Z,0
2022-11-02T04:10:04.120Z,0
2022-11-02T04:11:04.070Z,0
2022-11-02T04:12:04.077Z,0
2022-11-02T04:13:06.855Z,0
2022-11-02T04:14:04.115Z,0
2022-11-02T04:15:04.119Z,0
2022-11-02T04:16:04.085Z,0
2022-11-02T04:17:04.088Z,0
2022-11-02T04:18:04.836Z,0
2022-11-02T04:19:06.973Z,0
2022-11-02T04:20:04.296Z,0
2022-11-02T04:21:04.100Z,0
2022-11-02T04:22:04.108Z,0
2022-11-02T04:23:04.100Z,0
2022-11-02T04:24:07.286Z,0
2022-11-02T04:25:04.128Z,0
2022-11-02T04:26:04.100Z,0
2022-11-02T04:27:04.110Z,0
2022-11-02T04:28:04.915Z,0
2022-11-02T04:29:04.110Z,0
2022-11-02T04:30:07.211Z,0
2022-11-02T04:31:04.118Z,0
2022-11-02T04:32:04.181Z,0
2022-11-02T04:33:04.143Z,0
2022-11-02T04:34:04.179Z,0
2022-11-02T04:35:05.538Z,0
2022-11-02T04:36:04.155Z,0
2022-11-02T04:37:04.226Z,0
2022-11-02T04:38:05.045Z,0
2022-11-02T04:39:04.217Z,0
2022-11-02T04:40:04.193Z,0
2022-11-02T04:41:07.146Z,0
2022-11-02T04:42:04.132Z,0
2022-11-02T04:43:04.140Z,0
2022-11-02T04:44:04.233Z,0
2022-11-02T04:45:04.145Z,0
2022-11-02T04:46:06.915Z,0
2022-11-02T04:47:04.178Z,0
2022-11-02T04:48:04.848Z,0
2022-11-02T04:49:04.146Z,0
2022-11-02T04:50:04.218Z,0
2022-11-02T04:51:04.162Z,0
2022-11-02T04:52:07.078Z,0
2022-11-02T04:53:04.163Z,0
2022-11-02T04:54:04.162Z,0
2022-11-02T04:55:04.288Z,0
2022-11-02T04:56:04.169Z,0
2022-11-02T04:57:08.066Z,0
2022-11-02T04:58:04.740Z,0
2022-11-02T04:59:04.167Z,0
2022-11-02T05:00:04.177Z,0
2022-11-02T05:01:04.174Z,0
2022-11-02T05:02:05.132Z,0
2022-11-02T05:03:06.793Z,0
2022-11-02T05:04:04.155Z,0
2022-11-02T05:05:04.188Z,0
2022-11-02T05:06:04.234Z,0
2022-11-02T05:07:10.187Z,0
2022-11-02T05:08:08.420Z,0
2022-11-02T05:09:04.189Z,0
2022-11-02T05:10:04.202Z,0
2022-11-02T05:11:04.185Z,0
2022-11-02T05:12:04.353Z,0
2022-11-02T05:13:04.170Z,0
2022-11-02T05:14:04.182Z,0
2022-11-02T05:15:04.216Z,0
2022-11-02T05:16:04.182Z,0
2022-11-02T05:17:04.177Z,0
2022-11-02T05:18:05.198Z,0
2022-11-02T05:19:11.013Z,0
2022-11-02T05:20:04.214Z,0
2022-11-02T05:21:04.187Z,0
2022-11-02T05:22:04.242Z,0
2022-11-02T05:23:05.104Z,0
2022-11-02T05:24:07.083Z,0
2022-11-02T05:25:04.214Z,0
2022-11-02T05:26:04.206Z,0
2022-11-02T05:27:04.215Z,0
2022-11-02T05:28:04.246Z,0
2022-11-02T05:29:04.289Z,0
2022-11-02T05:30:04.225Z,0
2022-11-02T05:31:04.225Z,0
2022-11-02T05:32:04.210Z,0
2022-11-02T05:33:05.111Z,0
2022-11-02T05:34:04.206Z,0
2022-11-02T05:35:07.290Z,0
2022-11-02T05:36:04.211Z,0
2022-11-02T05:37:04.250Z,0
2022-11-02T05:38:04.299Z,0
2022-11-02T05:39:04.272Z,0
2022-11-02T05:40:07.150Z,0
2022-11-02T05:41:04.215Z,0
2022-11-02T05:42:04.218Z,0
2022-11-02T05:43:04.880Z,0
2022-11-02T05:44:04.236Z,0
2022-11-02T05:45:04.237Z,0
2022-11-02T05:46:07.247Z,0
2022-11-02T05:47:04.257Z,0
2022-11-02T05:48:04.230Z,0
2022-11-02T05:49:04.239Z,0
2022-11-02T05:50:04.344Z,0
2022-11-02T05:51:05.429Z,0
2022-11-02T05:52:04.243Z,0
2022-11-02T05:53:04.912Z,0
2022-11-02T05:54:04.295Z,0
2022-11-02T05:55:04.277Z,0
2022-11-02T05:56:04.840Z,0
2022-11-02T05:57:04.272Z,0
2022-11-02T05:58:04.256Z,0
2022-11-02T05:59:04.318Z,0
2022-11-02T06:00:04.275Z,0
2022-11-02T06:01:04.317Z,0
2022-11-02T06:02:07.559Z,0
2022-11-02T06:03:04.915Z,0
2022-11-02T06:04:04.362Z,0
2022-11-02T06:05:04.616Z,0
2022-11-02T06:06:04.295Z,0
2022-11-02T06:07:05.330Z,0
2022-11-02T06:08:04.257Z,0
2022-11-02T06:09:11.677Z,0
2022-11-02T06:10:04.255Z,0
2022-11-02T06:11:04.337Z,0
2022-11-02T06:12:04.274Z,0
2022-11-02T06:13:08.229Z,0
2022-11-02T06:14:04.441Z,0
2022-11-02T06:15:04.271Z,0
2022-11-02T06:16:04.323Z,0
2022-11-02T06:17:04.282Z,0
2022-11-02T06:18:07.046Z,0
2022-11-02T06:19:04.621Z,0
2022-11-02T06:20:04.272Z,0
2022-11-02T06:21:04.301Z,0
2022-11-02T06:22:04.286Z,0
2022-11-02T06:23:05.009Z,0
2022-11-02T06:24:07.268Z,0
2022-11-02T06:25:04.337Z,0
2022-11-02T06:26:04.326Z,0
2022-11-02T06:27:04.336Z,0
2022-11-02T06:28:04.377Z,0
2022-11-02T06:29:07.346Z,0
2022-11-02T06:30:04.285Z,0
2022-11-02T06:31:04.313Z,5
2022-11-02T06:32:04.317Z,5
2022-11-02T06:33:12.850Z,5
2022-11-02T06:34:04.306Z,5
2022-11-02T06:35:05.472Z,5
2022-11-02T06:36:04.342Z,5
2022-11-02T06:37:04.330Z,5
2022-11-02T06:38:04.135Z,5
2022-11-02T06:39:04.143Z,5
2022-11-02T06:40:07.149Z,10
2022-11-02T06:41:04.326Z,5
2022-11-02T06:42:04.308Z,5
2022-11-02T06:43:26.309Z,10
2022-11-02T06:44:04.310Z,10
2022-11-02T06:45:04.312Z,20
2022-11-02T06:46:07.083Z,25
2022-11-02T06:47:04.314Z,30
2022-11-02T06:48:04.175Z,35
2022-11-02T06:49:04.302Z,15
2022-11-02T06:50:04.340Z,10
2022-11-02T06:51:05.552Z,10
2022-11-02T06:52:04.168Z,10
2022-11-02T06:53:05.060Z,15
2022-11-02T06:54:11.132Z,85
2022-11-02T06:55:04.344Z,90
2022-11-02T06:56:04.415Z,95
2022-11-02T06:57:09.105Z,95
2022-11-02T06:58:04.339Z,95
2022-11-02T06:59:04.375Z,100
2022-11-02T07:00:04.747Z,100
2022-11-02T07:01:04.946Z,100
2022-11-02T07:02:08.505Z,100
2022-11-02T07:03:05.289Z,95
2022-11-02T07:04:04.365Z,95
2022-11-02T07:05:04.363Z,90
2022-11-02T07:06:07.393Z,80
2022-11-02T07:07:04.343Z,80
2022-11-02T07:08:07.223Z,80
2022-11-02T07:09:04.365Z,70
2022-11-02T07:10:04.351Z,65
2022-11-02T07:11:04.431Z,60
2022-11-02T07:12:04.395Z,50
2022-11-02T07:13:08.416Z,50
2022-11-02T07:14:04.367Z,55
2022-11-02T07:15:04.406Z,60
2022-11-02T07:16:04.386Z,45
2022-11-02T07:17:04.351Z,40
2022-11-02T07:18:04.300Z,40
2022-11-02T07:19:07.386Z,40
2022-11-02T07:20:04.416Z,35
2022-11-02T07:21:04.395Z,40
2022-11-02T07:22:04.502Z,55
2022-11-02T07:23:05.058Z,50
2022-11-02T07:24:04.628Z,50
2022-11-02T07:25:04.403Z,45
2022-11-02T07:26:04.408Z,45
2022-11-02T07:27:04.372Z,55
2022-11-02T07:28:04.451Z,65
2022-11-02T07:29:08.426Z,60
2022-11-02T07:30:04.373Z,65
2022-11-02T07:31:04.490Z,70
2022-11-02T07:32:04.390Z,75
2022-11-02T07:33:08.601Z,75
2022-11-02T07:34:04.395Z,50
2022-11-02T07:35:07.170Z,50
2022-11-02T07:36:04.130Z,40
2022-11-02T07:37:04.421Z,50
2022-11-02T07:38:04.421Z,65
2022-11-02T07:39:04.495Z,75
2022-11-02T07:40:06.857Z,25
2022-11-02T07:41:04.429Z,35
2022-11-02T07:43:04.880Z,60
2022-11-02T07:44:04.547Z,70
2022-11-02T07:45:04.551Z,65
2022-11-02T07:46:04.435Z,70
2022-11-02T07:47:04.473Z,75
2022-11-02T07:48:04.416Z,70
2022-11-02T07:49:04.414Z,70
2022-11-02T07:50:04.491Z,65
2022-11-02T07:51:07.411Z,80
2022-11-02T07:52:04.699Z,85
2022-11-02T07:53:04.880Z,30
2022-11-02T07:54:04.334Z,20
2022-11-02T07:55:04.281Z,20
2022-11-02T07:56:04.465Z,20
2022-11-02T07:57:04.422Z,20
2022-11-02T07:58:04.466Z,30
2022-11-02T07:59:03.969Z,60
2022-11-02T08:00:04.007Z,90
2022-11-02T08:01:08.843Z,95
2022-11-02T08:02:05.904Z,90
2022-11-02T08:03:05.785Z,85
2022-11-02T08:04:04.454Z,20
2022-11-02T08:05:04.451Z,15
2022-11-02T08:06:04.546Z,15
2022-11-02T08:07:07.244Z,20
2022-11-02T08:08:05.211Z,20
2022-11-02T08:09:04.486Z,20
2022-11-02T08:10:04.465Z,20
2022-11-02T08:11:04.471Z,20
2022-11-02T08:12:04.466Z,20
2022-11-02T08:13:09.521Z,15
2022-11-02T08:14:04.462Z,15
2022-11-02T08:15:10.908Z,20
2022-11-02T08:16:04.476Z,20
2022-11-02T08:17:04.451Z,45
2022-11-02T08:18:08.928Z,20
2022-11-02T08:19:04.524Z,20
2022-11-02T08:20:04.476Z,20
2022-11-02T08:21:05.617Z,20
2022-11-02T08:22:04.477Z,20
2022-11-02T08:23:07.334Z,20
2022-11-02T08:24:10.850Z,20
2022-11-02T08:25:04.767Z,35
2022-11-02T08:26:04.980Z,20
2022-11-02T08:27:04.489Z,20
2022-11-02T08:28:05.198Z,20
2022-11-02T08:29:07.585Z,20
2022-11-02T08:30:04.567Z,20
2022-11-02T08:31:04.681Z,20
2022-11-02T08:32:04.527Z,15
2022-11-02T08:33:06.314Z,15
2022-11-02T08:34:07.412Z,10
2022-11-02T08:35:04.547Z,10
2022-11-02T08:36:04.510Z,10
2022-11-02T08:37:04.532Z,10
2022-11-02T08:38:05.333Z,5
2022-11-02T08:39:04.544Z,5
2022-11-02T08:40:07.371Z,5
2022-11-02T08:41:04.537Z,5
2022-11-02T08:42:04.609Z,5
2022-11-02T08:43:04.526Z,5
2022-11-02T08:44:04.514Z,5
2022-11-02T08:45:07.671Z,5
2022-11-02T08:46:34.562Z,5
2022-11-02T08:47:11.698Z,5
2022-11-02T08:48:05.186Z,5
2022-11-02T08:49:04.556Z,5
2022-11-02T08:50:04.554Z,5
2022-11-02T08:51:07.600Z,5
2022-11-02T08:52:04.612Z,5
2022-11-02T08:53:04.529Z,5
2022-11-02T08:54:04.557Z,0
2022-11-02T08:55:04.627Z,0
2022-11-02T08:56:07.595Z,0
2022-11-02T08:57:04.602Z,5
2022-11-02T08:58:05.467Z,5
2022-11-02T08:59:04.561Z,5
2022-11-02T09:00:04.536Z,5
2022-11-02T09:01:04.565Z,5
2022-11-02T09:02:09.268Z,5
2022-11-02T09:03:04.975Z,5
2022-11-02T09:04:04.557Z,5
2022-11-02T09:05:04.565Z,5
2022-11-02T09:06:04.685Z,5
2022-11-02T09:07:07.511Z,5
2022-11-02T09:08:05.269Z,5
2022-11-02T09:09:08.065Z,10
2022-11-02T09:10:04.650Z,10
2022-11-02T09:11:04.640Z,10
2022-11-02T09:12:04.634Z,10
2022-11-02T09:13:08.320Z,10
2022-11-02T09:14:06.739Z,10
2022-11-02T09:15:04.616Z,10
2022-11-02T09:16:04.626Z,10
2022-11-02T09:17:04.605Z,10
2022-11-02T09:18:09.051Z,15
2022-11-02T09:19:04.582Z,15
2022-11-02T09:20:04.611Z,25
2022-11-02T09:21:04.581Z,20
2022-11-02T09:22:09.367Z,35
2022-11-02T09:23:04.653Z,35
2022-11-02T09:24:07.614Z,30
2022-11-02T09:25:04.607Z,30
2022-11-02T09:26:04.608Z,25
2022-11-02T09:27:04.646Z,25
2022-11-02T09:28:05.309Z,25
2022-11-02T09:29:05.810Z,25
2022-11-02T09:30:04.613Z,30
2022-11-02T09:31:08.855Z,30
2022-11-02T09:32:04.637Z,30
2022-11-02T09:33:05.598Z,35
2022-11-02T09:34:04.687Z,40
2022-11-02T09:35:07.612Z,40
2022-11-02T09:36:04.637Z,45
2022-11-02T09:37:04.682Z,45
2022-11-02T09:38:04.813Z,55
2022-11-02T09:39:04.663Z,55
2022-11-02T09:40:07.633Z,60
2022-11-02T09:41:04.637Z,45
2022-11-02T09:42:04.693Z,30
2022-11-02T09:43:05.359Z,25
2022-11-02T09:44:07.779Z,25
2022-11-02T09:45:04.606Z,25
2022-11-02T09:46:07.503Z,25
2022-11-02T09:48:31.609Z,40
2022-11-02T09:48:46.166Z,35
2022-11-02T09:49:41.217Z,40
2022-11-02T09:50:41.140Z,25
2022-11-02T09:51:41.159Z,20
2022-11-02T09:52:41.322Z,20
2022-11-02T09:53:44.186Z,20
2022-11-02T09:54:44.205Z,20
2022-11-02T09:55:41.187Z,20
2022-11-02T09:56:41.175Z,20
2022-11-02T09:57:41.196Z,20
2022-11-02T09:58:41.183Z,20
2022-11-02T09:59:44.220Z,20
2022-11-02T10:00:41.149Z,25
2022-11-02T10:01:41.497Z,30
2022-11-02T10:02:41.496Z,20
2022-11-02T10:03:41.213Z,20
2022-11-02T10:04:44.116Z,20
2022-11-02T10:05:41.182Z,25
2022-11-02T10:06:41.186Z,25
2022-11-02T10:07:41.205Z,20
2022-11-02T10:08:41.173Z,30
2022-11-02T10:09:41.223Z,25
2022-11-02T10:10:44.430Z,30
2022-11-02T10:11:42.536Z,20
2022-11-02T10:12:41.201Z,20
2022-11-02T10:13:41.198Z,20
2022-11-02T10:14:41.236Z,20
2022-11-02T10:15:44.206Z,20
2022-11-02T10:16:41.193Z,20
2022-11-02T10:17:41.221Z,20
2022-11-02T10:18:41.216Z,20
2022-11-02T10:19:41.184Z,20
2022-11-02T10:20:41.277Z,20
2022-11-02T10:21:44.118Z,15
2022-11-02T10:22:41.220Z,15
2022-11-02T10:23:41.195Z,15
2022-11-02T10:24:41.224Z,15
2022-11-02T10:25:41.302Z,15
2022-11-02T10:26:44.016Z,20
2022-11-02T10:27:41.576Z,20
2022-11-02T10:28:41.205Z,20
2022-11-02T10:29:41.226Z,20
2022-11-02T10:30:41.259Z,20
2022-11-02T10:31:41.216Z,20
2022-11-02T10:32:45.608Z,20
2022-11-02T10:33:41.208Z,20
2022-11-02T10:34:41.278Z,20
2022-11-02T10:36:26.879Z,15
2022-11-02T10:36:41.221Z,15
2022-11-02T10:37:51.144Z,15
2022-11-02T10:38:41.264Z,15
2022-11-02T10:39:41.219Z,15
2022-11-02T10:40:41.252Z,15
2022-11-02T10:41:41.251Z,15
2022-11-02T10:42:41.307Z,15
2022-11-02T10:43:47.089Z,15
2022-11-02T10:44:41.366Z,15
2022-11-02T10:45:41.261Z,20
2022-11-02T10:46:41.302Z,20
2022-11-02T10:47:41.320Z,20
2022-11-02T10:48:44.523Z,20
2022-11-02T10:49:41.241Z,20
2022-11-02T10:50:41.256Z,20
2022-11-02T10:51:41.319Z,20
2022-11-02T10:52:41.367Z,20
2022-11-02T10:53:58.078Z,25
2022-11-02T10:54:46.520Z,25
2022-11-02T10:55:41.458Z,25
2022-11-02T10:56:41.242Z,25
2022-11-02T10:57:41.338Z,25
2022-11-02T10:58:41.284Z,25
2022-11-02T10:59:42.433Z,25
2022-11-02T11:00:41.845Z,25
2022-11-02T11:01:41.746Z,25
2022-11-02T11:02:41.339Z,25
2022-11-02T11:03:41.389Z,20
2022-11-02T11:04:41.287Z,25
2022-11-02T11:05:41.460Z,25
2022-11-02T11:06:41.257Z,30
2022-11-02T11:07:41.337Z,30
2022-11-02T11:08:41.271Z,35
2022-11-02T11:09:47.116Z,40
2022-11-02T11:10:41.266Z,40
2022-11-02T11:11:41.285Z,30
2022-11-02T11:12:41.322Z,25
2022-11-02T11:15:55.253Z,35
2022-11-02T11:16:56.764Z,25
2022-11-02T11:19:41.758Z,35
2022-11-02T11:19:51.238Z,35
2022-11-02T11:20:51.198Z,35
2022-11-02T11:21:54.254Z,35
2022-11-02T11:22:51.366Z,20
2022-11-02T11:23:51.236Z,30
2022-11-02T11:24:51.411Z,30
2022-11-02T11:25:51.213Z,35
2022-11-02T11:26:51.209Z,30
2022-11-02T11:27:54.432Z,25
2022-11-02T11:28:51.204Z,20
2022-11-02T11:29:51.268Z,25
2022-11-02T11:31:21.257Z,20
2022-11-02T11:32:53.987Z,20
2022-11-02T11:33:51.264Z,20
2022-11-02T11:34:51.214Z,20
2022-11-02T11:35:51.252Z,20
2022-11-02T11:36:51.225Z,20
2022-11-02T11:37:51.251Z,20
2022-11-02T11:38:54.072Z,20
2022-11-02T11:39:57.325Z,20
2022-11-02T11:40:51.242Z,20
2022-11-02T11:41:51.222Z,20
2022-11-02T11:42:51.278Z,20
2022-11-02T11:43:54.129Z,20
2022-11-02T11:44:51.247Z,20
2022-11-02T11:45:50.617Z,20
2022-11-02T11:46:50.751Z,20
2022-11-02T11:47:50.622Z,20
2022-11-02T11:48:50.764Z,20
2022-11-02T11:50:33.792Z,20
2022-11-02T11:50:51.119Z,20
2022-11-02T11:51:50.773Z,20
2022-11-02T11:52:50.933Z,20
2022-11-02T11:53:50.634Z,20
2022-11-02T11:54:53.685Z,20
2022-11-02T11:55:50.595Z,20
2022-11-02T11:56:50.980Z,20
2022-11-02T11:57:50.801Z,20
2022-11-02T11:58:56.972Z,20
2022-11-02T11:59:53.479Z,20
2022-11-02T12:00:51.295Z,20
2022-11-02T12:01:52.224Z,20
2022-11-02T12:02:54.471Z,20
2022-11-02T12:03:51.299Z,20
2022-11-02T12:04:51.261Z,20
2022-11-02T12:05:54.067Z,10
2022-11-02T12:06:51.277Z,10
2022-11-02T12:07:58.318Z,15
2022-11-02T12:08:51.451Z,15
2022-11-02T12:09:51.272Z,20
2022-11-02T12:10:54.393Z,20
2022-11-02T12:11:51.281Z,20
2022-11-02T12:12:51.377Z,20
2022-11-02T12:13:51.323Z,20
2022-11-02T12:14:51.320Z,20
2022-11-02T12:15:51.319Z,20
2022-11-02T12:16:54.087Z,20
2022-11-02T12:17:51.303Z,20
2022-11-02T12:18:51.629Z,20
2022-11-02T12:19:51.306Z,20
2022-11-02T12:20:51.300Z,20
2022-11-02T12:21:54.120Z,20
2022-11-02T12:22:51.295Z,20
2022-11-02T12:23:51.316Z,20
2022-11-02T12:24:51.311Z,20
2022-11-02T12:25:51.302Z,20
2022-11-02T12:26:51.354Z,20
2022-11-02T12:27:54.390Z,20
2022-11-02T12:28:51.378Z,20
2022-11-02T12:29:51.405Z,20
2022-11-02T12:30:51.339Z,20
2022-11-02T12:31:51.817Z,20
2022-11-02T12:32:54.293Z,20
2022-11-02T12:33:51.352Z,20
2022-11-02T12:35:33.047Z,20
2022-11-02T12:35:51.959Z,20
2022-11-02T12:37:50.319Z,20
2022-11-02T12:38:59.728Z,20
2022-11-02T12:39:59.707Z,20
2022-11-02T12:40:59.713Z,15
2022-11-02T12:41:59.777Z,20
2022-11-02T12:42:59.734Z,20
2022-11-02T12:43:59.745Z,20
2022-11-02T12:45:00.782Z,20
2022-11-02T12:45:59.734Z,20
2022-11-02T12:46:59.745Z,20
2022-11-02T12:47:59.797Z,20
2022-11-02T12:48:59.797Z,20
2022-11-02T12:49:59.902Z,10
2022-11-02T12:50:59.733Z,30
2022-11-02T12:51:59.743Z,30
2022-11-02T12:52:59.726Z,25
2022-11-02T12:53:59.784Z,10
2022-11-02T12:54:59.731Z,25
2022-11-02T12:55:59.755Z,5
2022-11-02T12:56:59.754Z,5
2022-11-02T12:57:59.819Z,5
2022-11-02T12:58:59.792Z,5
2022-11-02T12:59:59.790Z,5
2022-11-02T13:01:03.200Z,5
2022-11-02T13:02:01.233Z,5
2022-11-02T13:02:59.772Z,5
2022-11-02T13:03:59.828Z,5
2022-11-02T13:04:59.749Z,5
2022-11-02T13:05:59.759Z,5
2022-11-02T13:06:59.797Z,5
2022-11-02T13:07:59.799Z,5
2022-11-02T13:08:59.987Z,5
2022-11-02T13:10:00.877Z,5
2022-11-02T13:11:02.893Z,5
2022-11-02T13:12:02.654Z,5
2022-11-02T13:12:59.780Z,10
2022-11-02T13:13:59.845Z,10
2022-11-02T13:15:00.027Z,25
2022-11-02T13:15:59.842Z,20
2022-11-02T13:17:04.632Z,5
2022-11-02T13:17:59.787Z,10
2022-11-02T13:18:59.794Z,15
2022-11-02T13:19:59.832Z,5
2022-11-02T13:20:59.771Z,5
2022-11-02T13:21:59.827Z,25
2022-11-02T13:23:03.124Z,5
2022-11-02T13:23:59.812Z,5
2022-11-02T13:24:59.779Z,35
2022-11-02T13:25:59.796Z,35
2022-11-02T13:27:42.423Z,35
2022-11-02T13:28:10.545Z,35
2022-11-02T13:28:59.836Z,35
2022-11-02T13:29:59.917Z,35
2022-11-02T13:30:59.787Z,40
2022-11-02T13:31:59.805Z,35
2022-11-02T13:33:03.003Z,40
2022-11-02T13:34:02.937Z,40
2022-11-02T13:34:59.824Z,40
2022-11-02T13:35:59.960Z,35
2022-11-02T13:36:59.838Z,40
2022-11-02T13:37:59.831Z,40
2022-11-02T13:39:02.929Z,40
2022-11-02T13:39:59.806Z,40
2022-11-02T13:40:59.831Z,40
2022-11-02T13:41:59.830Z,40
2022-11-02T13:43:00.032Z,40
2022-11-02T13:44:01.133Z,40
2022-11-02T13:44:59.849Z,40
2022-11-02T13:45:59.869Z,40
2022-11-02T13:47:05.686Z,40
2022-11-02T13:47:59.818Z,40
2022-11-02T13:48:59.922Z,35
2022-11-02T13:50:02.599Z,35
2022-11-02T13:50:59.824Z,35
2022-11-02T13:51:59.916Z,35
2022-11-02T13:52:59.868Z,30
2022-11-02T13:53:59.897Z,30
2022-11-02T13:55:02.940Z,30
2022-11-02T13:55:59.679Z,35
2022-11-02T13:56:59.678Z,40
2022-11-02T13:57:59.874Z,40
2022-11-02T13:58:59.879Z,40
2022-11-02T13:59:59.812Z,35
2022-11-02T14:01:02.996Z,35
2022-11-02T14:02:00.500Z,35
2022-11-02T14:03:00.192Z,35
2022-11-02T14:04:06.778Z,35
2022-11-02T14:04:59.823Z,35
2022-11-02T14:06:02.636Z,35
2022-11-02T14:06:59.839Z,35
2022-11-02T14:07:59.934Z,35
2022-11-02T14:08:59.921Z,35
2022-11-02T14:09:59.899Z,35
2022-11-02T14:11:05.874Z,35
2022-11-02T14:12:02.546Z,35
2022-11-02T14:12:59.540Z,35
2022-11-02T14:14:00.195Z,35
2022-11-02T14:14:59.576Z,35
2022-11-02T14:15:59.544Z,35
2022-11-02T14:17:59.936Z,35
2022-11-02T14:18:59.772Z,35
2022-11-02T14:20:00.452Z,35
2022-11-02T14:20:59.899Z,35
2022-11-02T14:21:59.941Z,35
2022-11-02T14:23:03.018Z,35
2022-11-02T14:23:59.972Z,35
2022-11-02T14:24:59.910Z,35
2022-11-02T14:26:00.129Z,35
2022-11-02T14:26:59.905Z,35
2022-11-02T14:28:07.307Z,35
2022-11-02T14:28:59.936Z,35
2022-11-02T14:29:59.923Z,35
2022-11-02T14:30:59.904Z,35
2022-11-02T14:31:59.976Z,30
2022-11-02T14:32:59.985Z,20
2022-11-02T14:34:02.883Z,20
2022-11-02T14:35:00.384Z,15
2022-11-02T14:35:59.935Z,10
2022-11-02T14:36:59.920Z,5
2022-11-02T14:38:00.143Z,5
2022-11-02T14:39:59.952Z,5
2022-11-02T14:40:59.743Z,5